createdAt,value
2023-05-25T00:00:18.914Z,96.56
2023-05-25T00:01:03.176Z,96.20
2023-05-25T00:01:49.009Z,95.76
2023-05-25T00:02:30.889Z,96.20
2023-05-25T00:03:12.746Z,96.70
2023-05-25T00:03:55.361Z,96.86
2023-05-25T00:04:38.443Z,96.60
2023-05-25T00:05:20.962Z,95.87
2023-05-25T00:06:02.631Z,95.72
2023-05-25T00:06:45.476Z,95.65
2023-05-25T00:07:27.113Z,96.00
2023-05-25T00:08:08.793Z,96.08
2023-05-25T00:08:51.583Z,95.87
2023-05-25T00:09:33.303Z,95.73
2023-05-25T00:10:14.991Z,97.45
2023-05-25T00:10:56.744Z,97.58
2023-05-25T00:11:38.903Z,97.72
2023-05-25T00:12:20.890Z,96.97
2023-05-25T00:13:02.714Z,96.38
2023-05-25T00:13:44.338Z,96.28
2023-05-25T00:14:25.982Z,97.38
2023-05-25T00:15:08.198Z,98.59
2023-05-25T00:15:50.468Z,99.62
2023-05-25T00:16:37.365Z,98.32
2023-05-25T00:17:19.086Z,97.63
2023-05-25T00:18:00.891Z,97.15
2023-05-25T00:18:43.277Z,98.17
2023-05-25T00:19:25.155Z,98.56
2023-05-25T00:20:09.052Z,98.45
2023-05-25T00:20:54.158Z,99.44
2023-05-25T00:21:38.087Z,98.52
2023-05-25T00:22:20.543Z,98.13
2023-05-25T00:23:05.277Z,98.18
2023-05-25T00:23:47.038Z,98.47
2023-05-25T00:24:30.726Z,98.76
2023-05-25T00:25:12.695Z,98.55
2023-05-25T00:25:54.295Z,98.14
2023-05-25T00:26:36.190Z,98.87
2023-05-25T00:27:17.874Z,98.13
2023-05-25T00:27:59.564Z,97.40
2023-05-25T00:28:41.242Z,97.06
2023-05-25T00:29:24.663Z,96.65
2023-05-25T00:30:07.099Z,96.76
2023-05-25T00:30:49.093Z,96.78
2023-05-25T00:31:33.026Z,96.40
2023-05-25T00:32:14.926Z,96.66
2023-05-25T00:32:56.688Z,97.50
2023-05-25T00:33:38.419Z,97.81
2023-05-25T00:34:20.817Z,97.10
2023-05-25T00:35:03.918Z,97.06
2023-05-25T00:35:46.711Z,97.18
2023-05-25T00:36:30.471Z,98.06
2023-05-25T00:37:12.193Z,97.98
2023-05-25T00:37:53.834Z,97.82
2023-05-25T00:38:35.584Z,97.96
2023-05-25T00:39:19.464Z,98.39
2023-05-25T00:40:01.254Z,98.85
2023-05-25T00:40:43.269Z,99.72
2023-05-25T00:41:27.104Z,100.00
2023-05-25T00:42:08.915Z,99.75
2023-05-25T00:42:51.112Z,99.47
2023-05-25T00:43:32.809Z,99.21
2023-05-25T00:44:15.868Z,98.87
2023-05-25T00:44:57.704Z,99.91
2023-05-25T00:45:39.689Z,99.40
2023-05-25T00:46:22.378Z,99.24
2023-05-25T00:47:04.911Z,99.17
2023-05-25T00:47:51.852Z,99.17
2023-05-25T00:48:33.702Z,98.89
2023-05-25T00:49:17.035Z,98.77
2023-05-25T00:49:58.747Z,98.53
2023-05-25T00:50:43.413Z,98.57
2023-05-25T00:51:26.371Z,99.41
2023-05-25T00:52:08.463Z,99.57
2023-05-25T00:52:50.315Z,99.34
2023-05-25T00:53:33.700Z,99.03
2023-05-25T00:54:16.378Z,98.78
2023-05-25T00:55:00.979Z,99.24
2023-05-25T00:56:07.484Z,98.83
2023-05-25T00:56:56.393Z,99.25
2023-05-25T00:57:41.519Z,99.42
2023-05-25T00:58:26.861Z,99.37
2023-05-25T00:59:11.904Z,99.47
2023-05-25T00:59:55.670Z,99.33
2023-05-25T01:00:38.697Z,99.57
2023-05-25T01:01:22.884Z,100.00
2023-05-25T01:02:08.278Z,100.00
2023-05-25T01:02:52.953Z,100.00
2023-05-25T01:03:38.260Z,99.83
2023-05-25T01:04:21.587Z,99.83
2023-05-25T01:05:06.510Z,99.46
2023-05-25T01:05:51.344Z,99.64
2023-05-25T01:06:34.661Z,99.91
2023-05-25T01:07:19.190Z,99.78
2023-05-25T01:08:03.590Z,99.64
2023-05-25T01:08:53.788Z,100.00
2023-05-25T01:09:39.068Z,100.00
2023-05-25T01:10:22.946Z,100.00
2023-05-25T01:11:06.533Z,100.00
2023-05-25T01:11:50.358Z,100.00
2023-05-25T01:12:36.695Z,100.00
2023-05-25T01:13:20.231Z,100.00
2023-05-25T01:14:02.727Z,100.00
2023-05-25T01:14:46.770Z,100.00
2023-05-25T01:15:30.334Z,100.00
2023-05-25T01:16:13.061Z,100.00
2023-05-25T01:16:59.002Z,100.00
2023-05-25T01:17:41.331Z,100.00
2023-05-25T01:18:23.056Z,100.00
2023-05-25T01:19:04.819Z,100.00
2023-05-25T01:20:01.608Z,100.00
2023-05-25T01:21:13.381Z,100.00
2023-05-25T01:21:59.401Z,100.00
2023-05-25T01:22:51.396Z,100.00
2023-05-25T01:23:36.708Z,100.00
2023-05-25T01:24:40.724Z,100.00
2023-05-25T01:25:27.068Z,100.00
2023-05-25T01:26:15.268Z,100.00
2023-05-25T01:27:32.524Z,100.00
2023-05-25T01:28:25.495Z,100.00
2023-05-25T01:29:07.992Z,100.00
2023-05-25T01:29:49.665Z,100.00
2023-05-25T01:30:32.873Z,100.00
2023-05-25T01:31:16.013Z,100.00
2023-05-25T01:31:58.585Z,100.00
2023-05-25T01:32:43.435Z,100.00
2023-05-25T01:33:26.318Z,100.00
2023-05-25T01:34:09.288Z,100.00
2023-05-25T01:34:52.384Z,100.00
2023-05-25T01:35:35.355Z,100.00
2023-05-25T01:36:18.658Z,100.00
2023-05-25T01:37:00.775Z,100.00
2023-05-25T01:37:46.832Z,100.00
2023-05-25T01:38:28.545Z,100.00
2023-05-25T01:39:11.090Z,100.00
2023-05-25T01:39:53.135Z,100.00
2023-05-25T01:40:34.790Z,100.00
2023-05-25T01:41:17.562Z,100.00
2023-05-25T01:41:59.558Z,100.00
2023-05-25T01:42:41.954Z,100.00
2023-05-25T01:43:23.958Z,100.00
2023-05-25T01:44:07.578Z,100.00
2023-05-25T01:44:49.714Z,100.00
2023-05-25T01:45:32.967Z,100.00
2023-05-25T01:46:23.290Z,100.00
2023-05-25T01:47:17.031Z,100.00
2023-05-25T01:48:19.703Z,100.00
2023-05-25T01:49:12.706Z,100.00
2023-05-25T01:50:06.458Z,100.00
2023-05-25T01:50:51.148Z,100.00
2023-05-25T01:51:43.876Z,100.00
2023-05-25T01:52:32.411Z,100.00
2023-05-25T01:53:26.475Z,100.00
2023-05-25T01:54:16.931Z,100.00
2023-05-25T01:55:06.349Z,100.00
2023-05-25T01:56:08.449Z,100.00
2023-05-25T01:56:52.487Z,100.00
2023-05-25T01:57:37.505Z,100.00
2023-05-25T01:58:22.653Z,100.00
2023-05-25T01:59:07.942Z,100.00
2023-05-25T01:59:52.459Z,100.00
2023-05-25T02:00:35.795Z,100.00
2023-05-25T02:01:18.534Z,100.00
2023-05-25T02:02:01.894Z,100.00
2023-05-25T02:02:46.961Z,100.00
2023-05-25T02:03:29.035Z,100.00
2023-05-25T02:04:11.388Z,100.00
2023-05-25T02:04:56.920Z,100.00
2023-05-25T02:05:42.305Z,100.00
2023-05-25T02:06:24.200Z,100.00
2023-05-25T02:07:07.188Z,100.00
2023-05-25T02:07:48.905Z,100.00
2023-05-25T02:08:30.682Z,100.00
2023-05-25T02:09:14.885Z,100.00
2023-05-25T02:09:56.646Z,100.00
2023-05-25T02:10:38.278Z,100.00
2023-05-25T02:11:20.043Z,100.00
2023-05-25T02:12:02.437Z,100.00
2023-05-25T02:12:44.298Z,100.00
2023-05-25T02:13:25.958Z,100.00
2023-05-25T02:14:09.038Z,100.00
2023-05-25T02:14:50.949Z,100.00
2023-05-25T02:15:33.867Z,100.00
2023-05-25T02:16:15.683Z,100.00
2023-05-25T02:17:02.448Z,100.00
2023-05-25T02:17:44.559Z,100.00
2023-05-25T02:18:26.410Z,100.00
2023-05-25T02:19:09.170Z,100.00
2023-05-25T02:19:53.157Z,100.00
2023-05-25T02:20:36.939Z,100.00
2023-05-25T02:21:18.846Z,100.00
2023-05-25T02:22:00.569Z,100.00
2023-05-25T02:22:42.244Z,100.00
2023-05-25T02:23:23.942Z,100.00
2023-05-25T02:24:06.498Z,100.00
2023-05-25T02:24:48.299Z,100.00
2023-05-25T02:25:30.038Z,100.00
2023-05-25T02:26:11.754Z,100.00
2023-05-25T02:26:53.566Z,100.00
2023-05-25T02:27:36.286Z,100.00
2023-05-25T02:28:18.132Z,100.00
2023-05-25T02:29:01.872Z,100.00
2023-05-25T02:29:43.549Z,100.00
2023-05-25T02:30:25.371Z,100.00
2023-05-25T02:31:09.868Z,100.00
2023-05-25T02:31:51.772Z,100.00
2023-05-25T02:32:33.786Z,100.00
2023-05-25T02:33:16.811Z,100.00
2023-05-25T02:33:58.943Z,100.00
2023-05-25T02:34:41.361Z,100.00
2023-05-25T02:35:23.178Z,100.00
2023-05-25T02:36:05.887Z,100.00
2023-05-25T02:36:47.619Z,100.00
2023-05-25T02:37:29.432Z,100.00
2023-05-25T02:38:11.166Z,100.00
2023-05-25T02:38:52.899Z,100.00
2023-05-25T02:39:34.710Z,100.00
2023-05-25T02:40:18.607Z,100.00
2023-05-25T02:41:00.411Z,100.00
2023-05-25T02:41:42.170Z,100.00
2023-05-25T02:42:23.846Z,100.00
2023-05-25T02:43:05.686Z,100.00
2023-05-25T02:43:47.972Z,100.00
2023-05-25T02:44:31.321Z,100.00
2023-05-25T02:45:13.073Z,100.00
2023-05-25T02:45:55.859Z,100.00
2023-05-25T02:46:38.392Z,100.00
2023-05-25T02:47:21.754Z,100.00
2023-05-25T02:48:03.655Z,100.00
2023-05-25T02:48:47.660Z,100.00
2023-05-25T02:49:30.030Z,100.00
2023-05-25T02:50:11.773Z,100.00
2023-05-25T02:50:58.634Z,100.00
2023-05-25T02:51:40.517Z,100.00
2023-05-25T02:52:22.659Z,100.00
2023-05-25T02:53:04.519Z,100.00
2023-05-25T02:53:46.367Z,100.00
2023-05-25T02:54:28.006Z,100.00
2023-05-25T02:55:18.656Z,100.00
2023-05-25T02:56:02.148Z,100.00
2023-05-25T02:56:47.076Z,100.00
2023-05-25T02:57:32.601Z,100.00
2023-05-25T02:58:15.281Z,100.00
2023-05-25T02:59:15.994Z,100.00
2023-05-25T02:59:57.716Z,100.00
2023-05-25T03:00:39.458Z,100.00
2023-05-25T03:01:21.416Z,100.00
2023-05-25T03:02:06.966Z,100.00
2023-05-25T03:02:48.996Z,100.00
2023-05-25T03:03:33.328Z,100.00
2023-05-25T03:04:15.074Z,100.00
2023-05-25T03:04:58.156Z,100.00
2023-05-25T03:05:40.054Z,100.00
2023-05-25T03:06:23.025Z,100.00
2023-05-25T03:07:07.867Z,100.00
2023-05-25T03:07:49.480Z,100.00
2023-05-25T03:08:31.451Z,100.00
2023-05-25T03:09:14.629Z,100.00
2023-05-25T03:09:56.698Z,100.00
2023-05-25T03:10:38.844Z,100.00
2023-05-25T03:11:23.326Z,100.00
2023-05-25T03:12:05.590Z,100.00
2023-05-25T03:12:47.263Z,100.00
2023-05-25T03:13:28.925Z,100.00
2023-05-25T03:14:11.201Z,100.00
2023-05-25T03:14:53.747Z,100.00
2023-05-25T03:15:36.666Z,100.00
2023-05-25T03:16:19.999Z,100.00
2023-05-25T03:17:03.223Z,100.00
2023-05-25T03:17:45.025Z,100.00
2023-05-25T03:18:27.731Z,100.00
2023-05-25T03:19:10.910Z,100.00
2023-05-25T03:19:53.208Z,100.00
2023-05-25T03:20:35.157Z,100.00
2023-05-25T03:21:17.644Z,100.00
2023-05-25T03:21:59.737Z,100.00
2023-05-25T03:23:00.051Z,100.00
2023-05-25T03:23:41.756Z,100.00
2023-05-25T03:24:23.823Z,100.00
2023-05-25T03:25:06.038Z,100.00
2023-05-25T03:25:47.708Z,100.00
2023-05-25T03:26:30.659Z,100.00
2023-05-25T03:27:12.407Z,100.00
2023-05-25T03:27:54.448Z,100.00
2023-05-25T03:28:36.130Z,100.00
2023-05-25T03:29:17.836Z,100.00
2023-05-25T03:29:59.569Z,100.00
2023-05-25T03:30:45.148Z,100.00
2023-05-25T03:31:27.204Z,100.00
2023-05-25T03:32:09.368Z,100.00
2023-05-25T03:32:52.520Z,100.00
2023-05-25T03:33:34.380Z,100.00
2023-05-25T03:34:16.095Z,100.00
2023-05-25T03:34:58.246Z,100.00
2023-05-25T03:35:41.548Z,100.00
2023-05-25T03:36:27.410Z,100.00
2023-05-25T03:37:09.066Z,100.00
2023-05-25T03:37:50.759Z,100.00
2023-05-25T03:38:32.719Z,100.00
2023-05-25T03:39:14.675Z,100.00
2023-05-25T03:39:56.449Z,100.00
2023-05-25T03:40:38.751Z,100.00
2023-05-25T03:41:20.789Z,100.00
2023-05-25T03:42:06.399Z,100.00
2023-05-25T03:42:48.112Z,100.00
2023-05-25T03:43:29.894Z,100.00
2023-05-25T03:44:11.772Z,100.00
2023-05-25T03:44:53.542Z,100.00
2023-05-25T03:45:35.283Z,100.00
2023-05-25T03:46:17.176Z,100.00
2023-05-25T03:46:59.011Z,100.00
2023-05-25T03:47:41.369Z,100.00
2023-05-25T03:48:23.464Z,100.00
2023-05-25T03:49:05.795Z,100.00
2023-05-25T03:49:47.433Z,100.00
2023-05-25T03:50:29.072Z,100.00
2023-05-25T03:51:11.978Z,100.00
2023-05-25T03:51:53.819Z,100.00
2023-05-25T03:52:36.148Z,100.00
2023-05-25T03:53:18.099Z,100.00
2023-05-25T03:53:59.986Z,100.00
2023-05-25T03:54:41.622Z,100.00
2023-05-25T03:55:24.116Z,100.00
2023-05-25T03:56:06.591Z,100.00
2023-05-25T03:56:48.245Z,100.00
2023-05-25T03:57:29.885Z,100.00
2023-05-25T03:58:11.544Z,100.00
2023-05-25T03:58:53.240Z,100.00
2023-05-25T03:59:35.093Z,100.00
2023-05-25T04:00:16.966Z,100.00
2023-05-25T04:00:58.761Z,100.00
2023-05-25T04:01:40.447Z,100.00
2023-05-25T04:02:22.296Z,100.00
2023-05-25T04:03:04.246Z,100.00
2023-05-25T04:03:46.142Z,100.00
2023-05-25T04:04:28.287Z,100.00
2023-05-25T04:05:10.001Z,100.00
2023-05-25T04:05:51.645Z,100.00
2023-05-25T04:06:33.933Z,100.00
2023-05-25T04:07:15.825Z,100.00
2023-05-25T04:07:57.680Z,100.00
2023-05-25T04:08:41.000Z,100.00
2023-05-25T04:09:22.833Z,100.00
2023-05-25T04:10:05.547Z,100.00
2023-05-25T04:10:47.430Z,100.00
2023-05-25T04:11:29.249Z,100.00
2023-05-25T04:12:10.912Z,100.00
2023-05-25T04:12:52.605Z,100.00
2023-05-25T04:13:36.348Z,100.00
2023-05-25T04:14:21.089Z,100.00
2023-05-25T04:15:05.397Z,100.00
2023-05-25T04:15:50.658Z,100.00
2023-05-25T04:16:35.965Z,100.00
2023-05-25T04:17:19.371Z,100.00
2023-05-25T04:18:02.959Z,100.00
2023-05-25T04:18:44.751Z,100.00
2023-05-25T04:19:26.466Z,100.00
2023-05-25T04:20:09.442Z,100.00
2023-05-25T04:20:51.559Z,100.00
2023-05-25T04:21:36.698Z,100.00
2023-05-25T04:22:19.052Z,100.00
2023-05-25T04:23:02.447Z,100.00
2023-05-25T04:23:44.381Z,100.00
2023-05-25T04:24:26.298Z,100.00
2023-05-25T04:25:08.766Z,100.00
2023-05-25T04:25:51.240Z,100.00
2023-05-25T04:26:33.624Z,100.00
2023-05-25T04:27:17.400Z,100.00
2023-05-25T04:27:59.084Z,100.00
2023-05-25T04:29:01.857Z,100.00
2023-05-25T04:29:58.509Z,100.00
2023-05-25T04:31:13.455Z,100.00
2023-05-25T04:32:17.817Z,100.00
2023-05-25T04:33:04.193Z,100.00
2023-05-25T04:34:06.504Z,100.00
2023-05-25T04:34:55.104Z,100.00
2023-05-25T04:35:40.787Z,100.00
2023-05-25T04:36:22.977Z,100.00
2023-05-25T04:37:05.650Z,100.00
2023-05-25T04:37:48.345Z,100.00
2023-05-25T04:38:30.817Z,100.00
2023-05-25T04:39:14.153Z,100.00
2023-05-25T04:40:01.739Z,100.00
2023-05-25T04:40:46.369Z,100.00
2023-05-25T04:41:29.808Z,100.00
2023-05-25T04:42:14.570Z,100.00
2023-05-25T04:42:57.117Z,100.00
2023-05-25T04:43:46.555Z,100.00
2023-05-25T04:44:39.965Z,100.00
2023-05-25T04:45:24.709Z,100.00
2023-05-25T04:46:08.708Z,100.00
2023-05-25T04:46:50.484Z,100.00
2023-05-25T04:47:41.121Z,100.00
2023-05-25T04:48:24.554Z,100.00
2023-05-25T04:49:08.557Z,100.00
2023-05-25T04:49:51.060Z,100.00
2023-05-25T04:50:32.776Z,100.00
2023-05-25T04:51:14.656Z,100.00
2023-05-25T04:51:56.434Z,100.00
2023-05-25T04:52:39.254Z,100.00
2023-05-25T04:53:21.263Z,100.00
2023-05-25T04:54:03.281Z,100.00
2023-05-25T04:54:45.016Z,100.00
2023-05-25T04:55:27.941Z,100.00
2023-05-25T04:56:09.651Z,100.00
2023-05-25T04:56:51.498Z,100.00
2023-05-25T04:57:33.190Z,100.00
2023-05-25T04:58:15.433Z,100.00
2023-05-25T04:58:57.456Z,100.00
2023-05-25T04:59:39.565Z,100.00
2023-05-25T05:00:21.979Z,100.00
2023-05-25T05:01:05.177Z,100.00
2023-05-25T05:01:47.386Z,100.00
2023-05-25T05:02:31.779Z,100.00
2023-05-25T05:03:14.505Z,100.00
2023-05-25T05:03:57.419Z,100.00
2023-05-25T05:04:41.314Z,100.00
2023-05-25T05:05:23.641Z,100.00
2023-05-25T05:06:06.338Z,100.00
2023-05-25T05:06:48.500Z,100.00
2023-05-25T05:07:34.070Z,100.00
2023-05-25T05:08:15.889Z,100.00
2023-05-25T05:08:57.557Z,100.00
2023-05-25T05:09:39.284Z,100.00
2023-05-25T05:10:21.003Z,100.00
2023-05-25T05:11:07.823Z,100.00
2023-05-25T05:11:49.592Z,100.00
2023-05-25T05:12:32.750Z,100.00
2023-05-25T05:13:16.157Z,100.00
2023-05-25T05:13:59.046Z,100.00
2023-05-25T05:14:41.147Z,100.00
2023-05-25T05:15:23.174Z,100.00
2023-05-25T05:16:05.975Z,99.36
2023-05-25T05:16:48.272Z,99.76
2023-05-25T05:17:31.121Z,100.00
2023-05-25T05:18:14.126Z,100.00
2023-05-25T05:18:56.195Z,100.00
2023-05-25T05:19:37.897Z,100.00
2023-05-25T05:20:21.646Z,100.00
2023-05-25T05:21:03.488Z,95.33
2023-05-25T05:21:45.723Z,96.01
2023-05-25T05:22:27.684Z,96.19
2023-05-25T05:23:11.398Z,96.42
2023-05-25T05:23:53.139Z,95.80
2023-05-25T05:24:34.909Z,95.07
2023-05-25T05:25:16.646Z,95.34
2023-05-25T05:25:58.358Z,94.31
2023-05-25T05:26:55.581Z,92.40
2023-05-25T05:27:42.752Z,93.65
2023-05-25T05:28:31.696Z,93.60
2023-05-25T05:29:13.534Z,93.65
2023-05-25T05:29:55.420Z,93.89
2023-05-25T05:30:37.530Z,93.29
2023-05-25T05:31:19.732Z,92.29
2023-05-25T05:32:02.029Z,91.64
2023-05-25T05:32:46.023Z,90.37
2023-05-25T05:33:28.678Z,89.73
2023-05-25T05:34:10.574Z,90.51
2023-05-25T05:34:52.292Z,91.02
2023-05-25T05:35:47.393Z,91.62
2023-05-25T05:36:45.301Z,92.50
2023-05-25T05:37:34.781Z,92.37
2023-05-25T05:38:16.614Z,92.65
2023-05-25T05:38:58.301Z,92.60
2023-05-25T05:39:40.001Z,92.37
2023-05-25T05:40:21.680Z,92.81
2023-05-25T05:41:03.386Z,92.70
2023-05-25T05:41:45.437Z,90.30
2023-05-25T05:42:28.016Z,91.18
2023-05-25T05:43:13.508Z,90.24
2023-05-25T05:43:55.296Z,91.10
2023-05-25T05:44:37.211Z,91.43
2023-05-25T05:45:18.879Z,92.22
2023-05-25T05:46:00.625Z,92.63
2023-05-25T05:46:42.780Z,93.55
2023-05-25T05:47:24.748Z,93.56
2023-05-25T05:48:10.041Z,93.60
2023-05-25T05:48:54.674Z,93.63
2023-05-25T05:49:38.254Z,94.19
2023-05-25T05:50:20.296Z,94.56
2023-05-25T05:51:02.705Z,95.06
2023-05-25T05:51:44.567Z,95.11
2023-05-25T05:52:26.257Z,95.37
2023-05-25T05:53:09.741Z,95.31
2023-05-25T05:53:51.493Z,95.19
2023-05-25T05:54:33.301Z,94.85
2023-05-25T05:55:20.991Z,94.99
2023-05-25T05:56:05.838Z,95.35
2023-05-25T05:56:48.061Z,95.49
2023-05-25T05:57:29.783Z,95.63
2023-05-25T05:58:11.485Z,96.10
2023-05-25T05:58:54.505Z,96.30
2023-05-25T05:59:36.278Z,96.10
2023-05-25T06:00:18.524Z,96.04
2023-05-25T06:01:01.425Z,96.05
2023-05-25T06:01:43.591Z,95.49
2023-05-25T06:02:25.991Z,95.25
2023-05-25T06:03:08.004Z,94.04
2023-05-25T06:03:50.235Z,94.02
2023-05-25T06:04:32.699Z,94.12
2023-05-25T06:05:14.718Z,94.22
2023-05-25T06:05:57.323Z,94.10
2023-05-25T06:06:41.970Z,94.09
2023-05-25T06:07:23.699Z,93.20
2023-05-25T06:08:06.184Z,91.90
2023-05-25T06:08:51.101Z,91.81
2023-05-25T06:09:32.859Z,92.49
2023-05-25T06:10:15.238Z,92.70
2023-05-25T06:10:58.448Z,93.88
2023-05-25T06:11:40.275Z,93.10
2023-05-25T06:12:22.930Z,94.31
2023-05-25T06:13:04.791Z,93.86
2023-05-25T06:13:46.831Z,93.62
2023-05-25T06:14:29.684Z,94.01
2023-05-25T06:15:14.697Z,94.10
2023-05-25T06:15:57.015Z,94.11
2023-05-25T06:16:40.070Z,94.28
2023-05-25T06:17:23.425Z,93.74
2023-05-25T06:18:09.783Z,93.52
2023-05-25T06:18:51.662Z,92.74
2023-05-25T06:19:33.364Z,93.68
2023-05-25T06:20:15.255Z,93.75
2023-05-25T06:20:57.501Z,93.89
2023-05-25T06:21:39.169Z,92.72
2023-05-25T06:22:22.021Z,93.63
2023-05-25T06:23:09.168Z,92.58
2023-05-25T06:23:52.413Z,92.67
2023-05-25T06:24:34.175Z,92.26
2023-05-25T06:25:16.558Z,91.64
2023-05-25T06:26:03.962Z,92.61
2023-05-25T06:26:45.668Z,92.70
2023-05-25T06:27:28.661Z,92.92
2023-05-25T06:28:10.534Z,92.60
2023-05-25T06:28:55.369Z,91.44
2023-05-25T06:29:42.778Z,90.20
2023-05-25T06:30:27.678Z,89.79
2023-05-25T06:31:09.487Z,89.78
2023-05-25T06:31:51.355Z,89.77
2023-05-25T06:32:35.139Z,89.28
2023-05-25T06:33:16.860Z,89.34
2023-05-25T06:33:58.763Z,89.54
2023-05-25T06:34:40.523Z,88.45
2023-05-25T06:35:25.829Z,88.80
2023-05-25T06:36:08.818Z,89.53
2023-05-25T06:36:50.594Z,88.99
2023-05-25T06:37:35.277Z,88.05
2023-05-25T06:38:18.350Z,88.87
2023-05-25T06:39:00.015Z,89.16
2023-05-25T06:39:43.258Z,89.39
2023-05-25T06:40:25.708Z,89.25
2023-05-25T06:41:09.498Z,89.22
2023-05-25T06:41:51.389Z,87.50
2023-05-25T06:42:42.680Z,87.65
2023-05-25T06:43:42.982Z,87.44
2023-05-25T06:44:29.412Z,87.68
2023-05-25T06:45:13.864Z,86.72
2023-05-25T06:45:58.575Z,86.60
2023-05-25T06:46:40.300Z,86.05
2023-05-25T06:47:23.698Z,86.62
2023-05-25T06:48:05.700Z,86.41
2023-05-25T06:48:50.847Z,86.33
2023-05-25T06:49:32.720Z,85.62
2023-05-25T06:50:14.328Z,86.12
2023-05-25T06:50:56.172Z,85.76
2023-05-25T06:51:40.798Z,86.49
2023-05-25T06:52:22.566Z,86.89
2023-05-25T06:53:04.218Z,86.34
2023-05-25T06:53:46.321Z,85.05
2023-05-25T06:54:27.982Z,85.41
2023-05-25T06:55:11.421Z,85.49
2023-05-25T06:55:53.213Z,85.45
2023-05-25T06:56:34.880Z,85.33
2023-05-25T06:57:16.526Z,84.66
2023-05-25T06:58:00.803Z,84.80
2023-05-25T06:58:42.454Z,84.37
2023-05-25T06:59:24.145Z,84.36
2023-05-25T07:00:07.724Z,83.94
2023-05-25T07:00:51.162Z,84.07
2023-05-25T07:01:32.914Z,83.57
2023-05-25T07:02:14.569Z,82.23
2023-05-25T07:02:56.251Z,81.33
2023-05-25T07:03:40.475Z,82.19
2023-05-25T07:04:23.181Z,80.58
2023-05-25T07:05:08.274Z,81.09
2023-05-25T07:05:50.095Z,80.94
2023-05-25T07:06:37.366Z,81.52
2023-05-25T07:07:19.149Z,81.77
2023-05-25T07:08:00.844Z,82.00
2023-05-25T07:08:42.589Z,82.39
2023-05-25T07:09:26.932Z,82.23
2023-05-25T07:10:09.250Z,81.10
2023-05-25T07:10:53.098Z,81.43
2023-05-25T07:11:34.830Z,81.01
2023-05-25T07:12:16.551Z,80.25
2023-05-25T07:12:58.195Z,78.12
2023-05-25T07:13:42.582Z,78.17
2023-05-25T07:14:24.250Z,78.47
2023-05-25T07:15:06.760Z,78.60
2023-05-25T07:15:48.871Z,78.66
2023-05-25T07:16:31.999Z,78.24
2023-05-25T07:17:17.519Z,76.16
2023-05-25T07:17:59.238Z,75.72
2023-05-25T07:18:41.868Z,76.04
2023-05-25T07:19:23.552Z,76.49
2023-05-25T07:20:08.826Z,75.74
2023-05-25T07:20:51.463Z,76.17
2023-05-25T07:21:38.321Z,75.91
2023-05-25T07:22:20.256Z,75.39
2023-05-25T07:23:01.914Z,75.50
2023-05-25T07:23:43.618Z,75.07
2023-05-25T07:24:25.437Z,75.03
2023-05-25T07:25:07.517Z,72.98
2023-05-25T07:25:49.759Z,73.76
2023-05-25T07:26:34.681Z,73.48
2023-05-25T07:27:16.567Z,73.55
2023-05-25T07:27:58.283Z,74.36
2023-05-25T07:28:39.949Z,74.53
2023-05-25T07:29:21.801Z,74.08
2023-05-25T07:30:07.330Z,73.27
2023-05-25T07:30:52.117Z,73.02
2023-05-25T07:31:33.900Z,72.67
2023-05-25T07:32:15.835Z,71.76
2023-05-25T07:32:58.262Z,71.72
2023-05-25T07:33:39.987Z,71.89
2023-05-25T07:34:21.683Z,71.89
2023-05-25T07:35:03.551Z,72.75
2023-05-25T07:35:45.601Z,72.87
2023-05-25T07:36:27.704Z,71.71
2023-05-25T07:37:09.399Z,71.67
2023-05-25T07:37:57.975Z,70.49
2023-05-25T07:38:39.915Z,71.00
2023-05-25T07:39:21.720Z,70.42
2023-05-25T07:40:03.871Z,69.43
2023-05-25T07:40:47.334Z,70.00
2023-05-25T07:41:28.978Z,70.64
2023-05-25T07:42:11.309Z,71.16
2023-05-25T07:42:53.538Z,71.16
2023-05-25T07:43:35.451Z,70.61
2023-05-25T07:44:17.102Z,70.93
2023-05-25T07:45:02.430Z,71.64
2023-05-25T07:45:44.458Z,70.85
2023-05-25T07:46:26.562Z,70.54
2023-05-25T07:47:08.319Z,70.14
2023-05-25T07:47:50.202Z,70.49
2023-05-25T07:48:31.893Z,69.77
2023-05-25T07:49:16.202Z,70.32
2023-05-25T07:49:57.977Z,70.21
2023-05-25T07:50:39.596Z,70.36
2023-05-25T07:51:23.317Z,70.41
2023-05-25T07:52:06.030Z,68.87
2023-05-25T07:52:50.269Z,68.93
2023-05-25T07:53:31.916Z,69.05
2023-05-25T07:54:16.474Z,67.94
2023-05-25T07:54:58.247Z,67.60
2023-05-25T07:55:39.998Z,67.24
2023-05-25T07:56:30.552Z,67.35
2023-05-25T07:57:23.092Z,67.00
2023-05-25T07:58:14.122Z,67.39
2023-05-25T07:59:04.988Z,68.12
2023-05-25T07:59:46.728Z,68.49
2023-05-25T08:00:28.398Z,68.32
2023-05-25T08:01:10.177Z,67.05
2023-05-25T08:01:52.149Z,67.27
2023-05-25T08:02:35.376Z,67.72
2023-05-25T08:03:17.864Z,68.16
2023-05-25T08:03:59.942Z,68.74
2023-05-25T08:04:44.776Z,68.88
2023-05-25T08:05:26.949Z,68.74
2023-05-25T08:06:08.690Z,67.90
2023-05-25T08:06:50.512Z,66.70
2023-05-25T08:07:35.214Z,67.24
2023-05-25T08:08:16.923Z,66.64
2023-05-25T08:09:03.905Z,67.04
2023-05-25T08:09:45.771Z,67.00
2023-05-25T08:10:32.018Z,66.72
2023-05-25T08:11:15.518Z,65.83
2023-05-25T08:12:12.656Z,64.99
2023-05-25T08:12:59.297Z,65.85
2023-05-25T08:13:41.095Z,65.95
2023-05-25T08:14:23.874Z,66.08
2023-05-25T08:15:06.123Z,65.62
2023-05-25T08:15:49.639Z,64.08
2023-05-25T08:16:34.139Z,64.84
2023-05-25T08:17:15.995Z,64.92
2023-05-25T08:17:59.224Z,65.07
2023-05-25T08:18:44.090Z,63.93
2023-05-25T08:19:31.209Z,63.61
2023-05-25T08:20:14.147Z,64.20
2023-05-25T08:20:55.988Z,63.96
2023-05-25T08:21:38.473Z,63.70
2023-05-25T08:22:22.753Z,63.50
2023-05-25T08:23:04.879Z,62.69
2023-05-25T08:23:46.638Z,61.74
2023-05-25T08:24:31.331Z,62.30
2023-05-25T08:25:13.096Z,62.76
2023-05-25T08:25:54.859Z,61.59
2023-05-25T08:26:52.892Z,62.10
2023-05-25T08:27:36.744Z,61.43
2023-05-25T08:28:20.848Z,62.57
2023-05-25T08:29:06.788Z,62.18
2023-05-25T08:29:48.517Z,62.45
2023-05-25T08:30:30.878Z,63.04
2023-05-25T08:31:12.648Z,63.21
2023-05-25T08:31:54.379Z,63.29
2023-05-25T08:32:36.266Z,63.26
2023-05-25T08:33:20.287Z,63.14
2023-05-25T08:34:02.025Z,62.51
2023-05-25T08:34:46.212Z,60.46
2023-05-25T08:35:27.895Z,61.06
2023-05-25T08:36:09.626Z,61.25
2023-05-25T08:36:54.222Z,60.18
2023-05-25T08:37:35.883Z,59.87
2023-05-25T08:38:17.684Z,60.26
2023-05-25T08:38:59.394Z,60.81
2023-05-25T08:39:41.161Z,61.38
2023-05-25T08:40:28.226Z,61.69
2023-05-25T08:41:12.240Z,61.36
2023-05-25T08:41:54.042Z,61.78
2023-05-25T08:42:38.817Z,61.17
2023-05-25T08:43:23.167Z,61.18
2023-05-25T08:44:08.074Z,60.56
2023-05-25T08:44:50.105Z,60.58
2023-05-25T08:45:35.236Z,60.32
2023-05-25T08:46:29.386Z,60.10
2023-05-25T08:47:15.122Z,60.55
2023-05-25T08:48:01.416Z,60.35
2023-05-25T08:48:45.147Z,59.43
2023-05-25T08:49:28.628Z,58.67
2023-05-25T08:50:11.606Z,58.56
2023-05-25T08:50:54.600Z,57.96
2023-05-25T08:51:38.252Z,57.76
2023-05-25T08:52:26.510Z,58.34
2023-05-25T08:53:11.683Z,59.01
2023-05-25T08:53:55.492Z,58.72
2023-05-25T08:54:38.143Z,58.97
2023-05-25T08:55:22.644Z,59.04
2023-05-25T08:56:11.857Z,58.62
2023-05-25T08:56:59.895Z,58.49
2023-05-25T08:57:54.571Z,56.81
2023-05-25T08:58:43.516Z,57.09
2023-05-25T08:59:36.774Z,57.51
2023-05-25T09:00:22.148Z,57.68
2023-05-25T09:01:08.011Z,58.59
2023-05-25T09:01:56.280Z,59.00
2023-05-25T09:02:51.009Z,59.27
2023-05-25T09:03:33.758Z,59.06
2023-05-25T09:04:19.449Z,59.09
2023-05-25T09:05:02.152Z,58.29
2023-05-25T09:05:50.360Z,57.81
2023-05-25T09:06:33.899Z,57.98
2023-05-25T09:07:16.160Z,58.40
2023-05-25T09:07:58.904Z,57.93
2023-05-25T09:08:40.765Z,58.88
2023-05-25T09:09:22.608Z,59.03
2023-05-25T09:10:05.115Z,59.25
2023-05-25T09:10:49.820Z,59.35
2023-05-25T09:11:39.349Z,59.60
2023-05-25T09:12:23.785Z,59.52
2023-05-25T09:13:19.769Z,59.01
2023-05-25T09:14:03.155Z,58.37
2023-05-25T09:14:48.156Z,58.38
2023-05-25T09:15:33.785Z,58.41